VGEG/CGP METAR and TAF weather

Enter ICAO airport designator
Station Type Date Time Source
VGEG METAR 2018/12/15 17:00 UTC NOAA

VGEG 151700Z 30006KT 3500 HZ SCT018 BKN100 22/19 Q1018 NOSIG


Station Type Date Time Source
VGEG Decoded METAR 2018/12/15 17:00 UTC NOAA

Chittagong Patenga , Bangladesh (VGEG) 22-16N 091-49E 6M
Dec 15, 2018 - 12:00 PM EST / 2018.12.15 1700 UTC
Wind: from the WNW (300 degrees) at 7 MPH (6 KT):0
Visibility: 2 mile(s):0
Sky conditions: mostly cloudy
Weather: haze
Temperature: 71 F (22 C)
Dew Point: 66 F (19 C)
Relative Humidity: 83%
Pressure (altimeter): 30.06 in. Hg (1018 hPa)
ob: VGEG 151700Z 30006KT 3500 HZ SCT018 BKN100 22/19 Q1018 NOSIG
cycle: 17

Station Type Date Time Source
VGEG TAF 2018/12/15 18:36 UTC NOAA

TAF TAF VGEG 151700Z 1518/1624 00000KT 3800 HZ SCT016
BECMG 1604/1606 36010KT 4000 HZ BKN120
BECMG 1614/1616 00000KT 3500 HZ BKN120


Example: see airport list